sensor_id;sensor_type;location;lat;lon;timestamp;temperature;humidity
9762;DHT22;4920;49.594;11.022;2023-08-01T00:00:27;16.60;99.90
9762;DHT22;4920;49.594;11.022;2023-08-01T00:02:57;16.60;99.90
9762;DHT22;4920;49.594;11.022;2023-08-01T00:05:26;16.60;99.90
9762;DHT22;4920;49.594;11.022;2023-08-01T00:07:55;16.60;99.90
9762;DHT22;4920;49.594;11.022;2023-08-01T00:10:24;16.60;99.90
9762;DHT22;4920;49.594;11.022;2023-08-01T00:12:54;16.60;99.90
9762;DHT22;4920;49.594;11.022;2023-08-01T00:15:23;16.60;99.90
9762;DHT22;4920;49.594;11.022;2023-08-01T00:17:52;16.60;99.90
9762;DHT22;4920;49.594;11.022;2023-08-01T00:20:21;16.60;99.90
9762;DHT22;4920;49.594;11.022;2023-08-01T00:22:50;16.60;99.90
9762;DHT22;4920;49.594;11.022;2023-08-01T00:25:18;16.50;99.90
9762;DHT22;4920;49.594;11.022;2023-08-01T00:27:47;16.50;99.90
9762;DHT22;4920;49.594;11.022;2023-08-01T00:30:18;16.50;99.90
9762;DHT22;4920;49.594;11.022;2023-08-01T00:32:47;16.50;99.90
9762;DHT22;4920;49.594;11.022;2023-08-01T00:35:16;16.50;99.90
9762;DHT22;4920;49.594;11.022;2023-08-01T00:37:45;16.50;99.90
9762;DHT22;4920;49.594;11.022;2023-08-01T00:40:14;16.50;99.90
9762;DHT22;4920;49.594;11.022;2023-08-01T00:42:44;16.50;99.90
9762;DHT22;4920;49.594;11.022;2023-08-01T00:45:13;16.40;99.90
9762;DHT22;4920;49.594;11.022;2023-08-01T00:47:44;16.50;99.90
9762;DHT22;4920;49.594;11.022;2023-08-01T00:50:13;16.40;99.90
9762;DHT22;4920;49.594;11.022;2023-08-01T00:52:42;16.40;99.90
9762;DHT22;4920;49.594;11.022;2023-08-01T00:55:10;16.40;99.90
9762;DHT22;4920;49.594;11.022;2023-08-01T00:57:40;16.40;99.90
9762;DHT22;4920;49.594;11.022;2023-08-01T01:00:10;16.40;99.90
9762;DHT22;4920;49.594;11.022;2023-08-01T01:03:00;16.40;99.90
9762;DHT22;4920;49.594;11.022;2023-08-01T01:05:33;16.40;99.90
9762;DHT22;4920;49.594;11.022;2023-08-01T01:08:04;16.30;99.90
9762;DHT22;4920;49.594;11.022;2023-08-01T01:10:33;16.40;99.90
9762;DHT22;4920;49.594;11.022;2023-08-01T01:13:01;16.40;99.90
9762;DHT22;4920;49.594;11.022;2023-08-01T01:15:30;16.40;99.90
9762;DHT22;4920;49.594;11.022;2023-08-01T01:18:01;16.40;99.90
9762;DHT22;4920;49.594;11.022;2023-08-01T01:20:34;16.30;99.90
9762;DHT22;4920;49.594;11.022;2023-08-01T01:23:05;16.30;99.90
9762;DHT22;4920;49.594;11.022;2023-08-01T01:25:35;16.30;99.90
9762;DHT22;4920;49.594;11.022;2023-08-01T01:28:06;16.30;99.90
9762;DHT22;4920;49.594;11.022;2023-08-01T01:30:36;16.30;99.90
9762;DHT22;4920;49.594;11.022;2023-08-01T01:33:05;16.30;99.90
9762;DHT22;4920;49.594;11.022;2023-08-01T01:35:35;16.30;99.90
9762;DHT22;4920;49.594;11.022;2023-08-01T01:38:04;16.30;99.90
9762;DHT22;4920;49.594;11.022;2023-08-01T01:40:33;16.30;99.90
9762;DHT22;4920;49.594;11.022;2023-08-01T01:43:02;16.30;99.90
9762;DHT22;4920;49.594;11.022;2023-08-01T01:45:32;16.30;99.90
9762;DHT22;4920;49.594;11.022;2023-08-01T01:48:00;16.30;99.90
9762;DHT22;4920;49.594;11.022;2023-08-01T01:50:29;16.30;99.90
9762;DHT22;4920;49.594;11.022;2023-08-01T01:53:00;16.30;99.90
9762;DHT22;4920;49.594;11.022;2023-08-01T01:55:29;16.30;99.90
9762;DHT22;4920;49.594;11.022;2023-08-01T01:57:59;16.30;99.90
9762;DHT22;4920;49.594;11.022;2023-08-01T02:00:29;16.40;99.90
9762;DHT22;4920;49.594;11.022;2023-08-01T02:02:58;16.40;99.90
9762;DHT22;4920;49.594;11.022;2023-08-01T02:05:28;16.40;99.90
9762;DHT22;4920;49.594;11.022;2023-08-01T02:07:56;16.40;99.90
9762;DHT22;4920;49.594;11.022;2023-08-01T02:10:26;16.40;99.90
9762;DHT22;4920;49.594;11.022;2023-08-01T02:12:55;16.40;99.90
9762;DHT22;4920;49.594;11.022;2023-08-01T02:15:24;16.30;99.90
9762;DHT22;4920;49.594;11.022;2023-08-01T02:17:53;16.30;99.90
9762;DHT22;4920;49.594;11.022;2023-08-01T02:20:22;16.30;99.90
9762;DHT22;4920;49.594;11.022;2023-08-01T02:22:52;16.30;99.90
9762;DHT22;4920;49.594;11.022;2023-08-01T02:25:21;16.30;99.90
9762;DHT22;4920;49.594;11.022;2023-08-01T02:27:51;16.30;99.90
9762;DHT22;4920;49.594;11.022;2023-08-01T02:30:20;16.30;99.90
9762;DHT22;4920;49.594;11.022;2023-08-01T02:32:49;16.30;99.90
9762;DHT22;4920;49.594;11.022;2023-08-01T02:35:18;16.30;99.90
9762;DHT22;4920;49.594;11.022;2023-08-01T02:37:47;16.30;99.90
9762;DHT22;4920;49.594;11.022;2023-08-01T02:40:16;16.30;99.90
9762;DHT22;4920;49.594;11.022;2023-08-01T02:42:45;16.30;99.90
9762;DHT22;4920;49.594;11.022;2023-08-01T02:45:16;16.20;99.90
9762;DHT22;4920;49.594;11.022;2023-08-01T02:47:45;16.20;99.90
9762;DHT22;4920;49.594;11.022;2023-08-01T02:50:14;16.20;99.90
9762;DHT22;4920;49.594;11.022;2023-08-01T02:52:43;16.20;99.90
9762;DHT22;4920;49.594;11.022;2023-08-01T02:55:12;16.20;99.90
9762;DHT22;4920;49.594;11.022;2023-08-01T02:57:41;16.20;99.90
9762;DHT22;4920;49.594;11.022;2023-08-01T03:00:10;16.20;99.90
9762;DHT22;4920;49.594;11.022;2023-08-01T03:02:41;16.20;99.90
9762;DHT22;4920;49.594;11.022;2023-08-01T03:05:10;16.20;99.90
9762;DHT22;4920;49.594;11.022;2023-08-01T03:07:39;16.20;99.90
9762;DHT22;4920;49.594;11.022;2023-08-01T03:10:09;16.20;99.90
9762;DHT22;4920;49.594;11.022;2023-08-01T03:12:58;16.20;99.90
9762;DHT22;4920;49.594;11.022;2023-08-01T03:15:28;16.20;99.90
9762;DHT22;4920;49.594;11.022;2023-08-01T03:17:58;16.20;99.90
9762;DHT22;4920;49.594;11.022;2023-08-01T03:20:28;16.20;99.90
9762;DHT22;4920;49.594;11.022;2023-08-01T03:22:57;16.20;99.90
9762;DHT22;4920;49.594;11.022;2023-08-01T03:25:26;16.20;99.90
9762;DHT22;4920;49.594;11.022;2023-08-01T03:27:56;16.10;99.90
9762;DHT22;4920;49.594;11.022;2023-08-01T03:30:25;16.20;99.90
9762;DHT22;4920;49.594;11.022;2023-08-01T03:32:54;16.10;99.90
9762;DHT22;4920;49.594;11.022;2023-08-01T03:35:25;16.20;99.90
9762;DHT22;4920;49.594;11.022;2023-08-01T03:37:59;16.20;99.90
9762;DHT22;4920;49.594;11.022;2023-08-01T03:40:29;16.20;99.90
9762;DHT22;4920;49.594;11.022;2023-08-01T03:42:58;16.20;99.90
9762;DHT22;4920;49.594;11.022;2023-08-01T03:45:27;16.10;99.90
9762;DHT22;4920;49.594;11.022;2023-08-01T03:47:55;16.20;99.90
9762;DHT22;4920;49.594;11.022;2023-08-01T03:50:26;16.10;99.90
9762;DHT22;4920;49.594;11.022;2023-08-01T03:52:54;16.10;99.90
9762;DHT22;4920;49.594;11.022;2023-08-01T03:55:23;16.20;99.90
9762;DHT22;4920;49.594;11.022;2023-08-01T03:57:52;16.10;99.90
9762;DHT22;4920;49.594;11.022;2023-08-01T04:00:20;16.10;99.90
9762;DHT22;4920;49.594;11.022;2023-08-01T04:02:49;16.10;99.90
9762;DHT22;4920;49.594;11.022;2023-08-01T04:05:18;16.10;99.90
9762;DHT22;4920;49.594;11.022;2023-08-01T04:07:49;16.10;99.90
9762;DHT22;4920;49.594;11.022;2023-08-01T04:10:18;16.00;99.90
9762;DHT22;4920;49.594;11.022;2023-08-01T04:12:47;16.00;99.90
9762;DHT22;4920;49.594;11.022;2023-08-01T04:15:15;16.10;99.90
9762;DHT22;4920;49.594;11.022;2023-08-01T04:17:45;16.10;99.90
9762;DHT22;4920;49.594;11.022;2023-08-01T04:20:14;16.10;99.90
9762;DHT22;4920;49.594;11.022;2023-08-01T04:22:43;16.10;99.90
9762;DHT22;4920;49.594;11.022;2023-08-01T04:25:13;16.10;99.90
9762;DHT22;4920;49.594;11.022;2023-08-01T04:27:43;16.10;99.90
9762;DHT22;4920;49.594;11.022;2023-08-01T04:30:11;16.10;99.90
9762;DHT22;4920;49.594;11.022;2023-08-01T04:32:40;16.10;99.90
9762;DHT22;4920;49.594;11.022;2023-08-01T04:35:09;16.10;99.90
9762;DHT22;4920;49.594;11.022;2023-08-01T04:37:38;16.20;99.90
9762;DHT22;4920;49.594;11.022;2023-08-01T04:40:08;16.20;99.90
9762;DHT22;4920;49.594;11.022;2023-08-01T04:42:38;16.20;99.90
9762;DHT22;4920;49.594;11.022;2023-08-01T04:45:14;16.30;99.90
9762;DHT22;4920;49.594;11.022;2023-08-01T04:47:43;16.20;99.90
9762;DHT22;4920;49.594;11.022;2023-08-01T04:50:12;16.30;99.90
9762;DHT22;4920;49.594;11.022;2023-08-01T04:52:41;16.20;99.90
9762;DHT22;4920;49.594;11.022;2023-08-01T04:55:10;16.30;99.90
9762;DHT22;4920;49.594;11.022;2023-08-01T04:57:40;16.30;99.90
9762;DHT22;4920;49.594;11.022;2023-08-01T05:00:36;16.40;99.90
9762;DHT22;4920;49.594;11.022;2023-08-01T05:03:05;16.40;99.90
9762;DHT22;4920;49.594;11.022;2023-08-01T05:05:34;16.40;99.90
9762;DHT22;4920;49.594;11.022;2023-08-01T05:08:03;16.50;99.90
9762;DHT22;4920;49.594;11.022;2023-08-01T05:10:32;16.50;99.90
9762;DHT22;4920;49.594;11.022;2023-08-01T05:13:02;16.50;99.90
9762;DHT22;4920;49.594;11.022;2023-08-01T05:15:31;16.60;99.90
9762;DHT22;4920;49.594;11.022;2023-08-01T05:18:00;16.60;99.90
9762;DHT22;4920;49.594;11.022;2023-08-01T05:20:29;16.60;99.90
9762;DHT22;4920;49.594;11.022;2023-08-01T05:27:36;16.70;99.90
9762;DHT22;4920;49.594;11.022;2023-08-01T05:30:11;16.70;99.90
9762;DHT22;4920;49.594;11.022;2023-08-01T05:32:40;16.70;99.90
9762;DHT22;4920;49.594;11.022;2023-08-01T05:35:11;16.80;99.90
9762;DHT22;4920;49.594;11.022;2023-08-01T05:38:11;16.80;99.90
9762;DHT22;4920;49.594;11.022;2023-08-01T05:40:40;16.80;99.90
9762;DHT22;4920;49.594;11.022;2023-08-01T05:43:09;16.80;99.90
9762;DHT22;4920;49.594;11.022;2023-08-01T05:45:40;16.80;99.90
9762;DHT22;4920;49.594;11.022;2023-08-01T05:48:09;16.80;99.90
9762;DHT22;4920;49.594;11.022;2023-08-01T05:50:42;16.80;99.90
9762;DHT22;4920;49.594;11.022;2023-08-01T05:53:10;16.80;99.90
9762;DHT22;4920;49.594;11.022;2023-08-01T05:55:39;16.80;99.90
9762;DHT22;4920;49.594;11.022;2023-08-01T05:58:08;16.80;99.90
9762;DHT22;4920;49.594;11.022;2023-08-01T06:00:40;16.80;99.90
9762;DHT22;4920;49.594;11.022;2023-08-01T06:03:09;16.80;99.90
9762;DHT22;4920;49.594;11.022;2023-08-01T06:05:38;16.80;99.90
9762;DHT22;4920;49.594;11.022;2023-08-01T06:08:07;16.80;99.90
9762;DHT22;4920;49.594;11.022;2023-08-01T06:10:36;16.80;99.90
9762;DHT22;4920;49.594;11.022;2023-08-01T06:13:05;16.90;99.90
9762;DHT22;4920;49.594;11.022;2023-08-01T06:15:34;16.90;99.90
9762;DHT22;4920;49.594;11.022;2023-08-01T06:18:04;16.90;99.90
9762;DHT22;4920;49.594;11.022;2023-08-01T06:20:36;16.90;99.90
9762;DHT22;4920;49.594;11.022;2023-08-01T06:26:27;17.00;99.90
9762;DHT22;4920;49.594;11.022;2023-08-01T06:28:56;17.00;99.90
9762;DHT22;4920;49.594;11.022;2023-08-01T06:31:25;17.00;99.90
9762;DHT22;4920;49.594;11.022;2023-08-01T06:33:55;17.00;99.90
9762;DHT22;4920;49.594;11.022;2023-08-01T06:36:24;17.00;99.90
9762;DHT22;4920;49.594;11.022;2023-08-01T06:38:53;17.00;99.90
9762;DHT22;4920;49.594;11.022;2023-08-01T06:41:22;17.00;99.90
9762;DHT22;4920;49.594;11.022;2023-08-01T06:43:52;17.00;99.90
9762;DHT22;4920;49.594;11.022;2023-08-01T06:46:20;17.00;99.90
9762;DHT22;4920;49.594;11.022;2023-08-01T06:48:49;17.00;99.90
9762;DHT22;4920;49.594;11.022;2023-08-01T06:51:19;17.00;99.90
9762;DHT22;4920;49.594;11.022;2023-08-01T06:53:48;17.10;99.90
9762;DHT22;4920;49.594;11.022;2023-08-01T06:56:17;17.00;99.90
9762;DHT22;4920;49.594;11.022;2023-08-01T06:58:46;17.10;99.90
9762;DHT22;4920;49.594;11.022;2023-08-01T07:01:15;17.10;99.90
9762;DHT22;4920;49.594;11.022;2023-08-01T07:03:44;17.10;99.90
9762;DHT22;4920;49.594;11.022;2023-08-01T07:06:13;17.10;99.90
9762;DHT22;4920;49.594;11.022;2023-08-01T07:08:44;17.20;99.90
9762;DHT22;4920;49.594;11.022;2023-08-01T07:11:13;17.20;99.90
9762;DHT22;4920;49.594;11.022;2023-08-01T07:13:42;17.20;99.90
9762;DHT22;4920;49.594;11.022;2023-08-01T07:16:11;17.30;99.90
9762;DHT22;4920;49.594;11.022;2023-08-01T07:18:40;17.30;99.90
9762;DHT22;4920;49.594;11.022;2023-08-01T07:21:09;17.30;99.90
9762;DHT22;4920;49.594;11.022;2023-08-01T07:23:38;17.40;99.90
9762;DHT22;4920;49.594;11.022;2023-08-01T07:26:08;17.40;99.90
9762;DHT22;4920;49.594;11.022;2023-08-01T07:28:37;17.40;99.90
9762;DHT22;4920;49.594;11.022;2023-08-01T07:31:07;17.40;99.90
9762;DHT22;4920;49.594;11.022;2023-08-01T07:33:36;17.40;99.90
9762;DHT22;4920;49.594;11.022;2023-08-01T07:36:05;17.40;99.90
9762;DHT22;4920;49.594;11.022;2023-08-01T07:38:34;17.40;99.90
9762;DHT22;4920;49.594;11.022;2023-08-01T07:41:03;17.40;99.90
9762;DHT22;4920;49.594;11.022;2023-08-01T07:43:34;17.40;99.90
9762;DHT22;4920;49.594;11.022;2023-08-01T07:46:02;17.40;99.90
9762;DHT22;4920;49.594;11.022;2023-08-01T07:48:31;17.40;99.90
9762;DHT22;4920;49.594;11.022;2023-08-01T07:51:00;17.30;99.90
9762;DHT22;4920;49.594;11.022;2023-08-01T07:53:41;17.40;99.90
9762;DHT22;4920;49.594;11.022;2023-08-01T07:56:10;17.40;99.90
9762;DHT22;4920;49.594;11.022;2023-08-01T07:58:41;17.40;99.90
9762;DHT22;4920;49.594;11.022;2023-08-01T08:01:10;17.30;99.90
9762;DHT22;4920;49.594;11.022;2023-08-01T08:03:40;17.40;99.90
9762;DHT22;4920;49.594;11.022;2023-08-01T08:06:10;17.30;99.90
9762;DHT22;4920;49.594;11.022;2023-08-01T08:08:38;17.30;99.90
9762;DHT22;4920;49.594;11.022;2023-08-01T08:11:07;17.30;99.90
9762;DHT22;4920;49.594;11.022;2023-08-01T08:13:36;17.30;99.90
9762;DHT22;4920;49.594;11.022;2023-08-01T08:16:06;17.20;99.90
9762;DHT22;4920;49.594;11.022;2023-08-01T08:18:35;17.10;99.90
9762;DHT22;4920;49.594;11.022;2023-08-01T08:21:04;17.10;99.90
9762;DHT22;4920;49.594;11.022;2023-08-01T08:23:33;17.00;99.90
9762;DHT22;4920;49.594;11.022;2023-08-01T08:26:06;17.00;99.90
9762;DHT22;4920;49.594;11.022;2023-08-01T08:28:34;17.10;99.90
9762;DHT22;4920;49.594;11.022;2023-08-01T08:31:03;17.10;99.90
9762;DHT22;4920;49.594;11.022;2023-08-01T08:33:33;17.20;99.90
9762;DHT22;4920;49.594;11.022;2023-08-01T08:36:02;17.30;99.90
9762;DHT22;4920;49.594;11.022;2023-08-01T08:38:31;17.30;99.90
9762;DHT22;4920;49.594;11.022;2023-08-01T08:41:06;17.30;99.90
9762;DHT22;4920;49.594;11.022;2023-08-01T08:43:37;17.20;99.90
9762;DHT22;4920;49.594;11.022;2023-08-01T08:46:08;17.20;99.90
9762;DHT22;4920;49.594;11.022;2023-08-01T08:48:40;17.20;99.90
9762;DHT22;4920;49.594;11.022;2023-08-01T08:51:10;17.20;99.90
9762;DHT22;4920;49.594;11.022;2023-08-01T08:53:40;17.10;99.90
9762;DHT22;4920;49.594;11.022;2023-08-01T08:56:09;17.10;99.90
9762;DHT22;4920;49.594;11.022;2023-08-01T08:58:39;17.10;99.90
9762;DHT22;4920;49.594;11.022;2023-08-01T09:01:08;17.10;99.90
9762;DHT22;4920;49.594;11.022;2023-08-01T09:03:39;17.20;99.90
9762;DHT22;4920;49.594;11.022;2023-08-01T09:06:12;17.20;99.90
9762;DHT22;4920;49.594;11.022;2023-08-01T09:08:49;17.20;99.90
9762;DHT22;4920;49.594;11.022;2023-08-01T09:11:18;17.30;99.90
9762;DHT22;4920;49.594;11.022;2023-08-01T09:13:47;17.30;99.90
9762;DHT22;4920;49.594;11.022;2023-08-01T09:16:17;17.30;99.90
9762;DHT22;4920;49.594;11.022;2023-08-01T09:18:49;17.40;99.90
9762;DHT22;4920;49.594;11.022;2023-08-01T09:21:19;17.50;99.90
9762;DHT22;4920;49.594;11.022;2023-08-01T09:23:48;17.60;99.90
9762;DHT22;4920;49.594;11.022;2023-08-01T09:26:18;17.80;99.90
9762;DHT22;4920;49.594;11.022;2023-08-01T09:28:55;18.00;99.90
9762;DHT22;4920;49.594;11.022;2023-08-01T09:31:28;18.20;99.90
9762;DHT22;4920;49.594;11.022;2023-08-01T09:34:00;18.30;99.90
9762;DHT22;4920;49.594;11.022;2023-08-01T09:36:29;18.40;99.90
9762;DHT22;4920;49.594;11.022;2023-08-01T09:38:58;18.50;99.90
9762;DHT22;4920;49.594;11.022;2023-08-01T09:41:28;18.50;99.90
9762;DHT22;4920;49.594;11.022;2023-08-01T09:43:57;18.60;99.90
9762;DHT22;4920;49.594;11.022;2023-08-01T09:46:26;18.70;99.90
9762;DHT22;4920;49.594;11.022;2023-08-01T09:48:55;18.80;99.90
9762;DHT22;4920;49.594;11.022;2023-08-01T09:51:47;18.90;99.90
9762;DHT22;4920;49.594;11.022;2023-08-01T09:54:18;19.20;99.90
9762;DHT22;4920;49.594;11.022;2023-08-01T09:56:48;19.40;99.90
9762;DHT22;4920;49.594;11.022;2023-08-01T09:59:20;19.40;99.90
9762;DHT22;4920;49.594;11.022;2023-08-01T10:01:51;19.50;99.90
9762;DHT22;4920;49.594;11.022;2023-08-01T10:04:23;19.50;99.90
9762;DHT22;4920;49.594;11.022;2023-08-01T10:06:57;19.60;99.90
9762;DHT22;4920;49.594;11.022;2023-08-01T10:09:27;19.70;99.90
9762;DHT22;4920;49.594;11.022;2023-08-01T10:11:57;19.80;99.90
9762;DHT22;4920;49.594;11.022;2023-08-01T10:14:26;20.00;99.90
9762;DHT22;4920;49.594;11.022;2023-08-01T10:16:56;20.00;99.90
9762;DHT22;4920;49.594;11.022;2023-08-01T10:19:26;20.10;99.90
9762;DHT22;4920;49.594;11.022;2023-08-01T10:21:56;20.10;99.90
9762;DHT22;4920;49.594;11.022;2023-08-01T10:24:26;20.20;99.90
9762;DHT22;4920;49.594;11.022;2023-08-01T10:26:56;20.30;99.90
9762;DHT22;4920;49.594;11.022;2023-08-01T10:29:34;20.60;99.90
9762;DHT22;4920;49.594;11.022;2023-08-01T10:32:06;20.90;99.90
9762;DHT22;4920;49.594;11.022;2023-08-01T10:34:35;21.20;99.90
9762;DHT22;4920;49.594;11.022;2023-08-01T10:37:06;21.20;99.90
9762;DHT22;4920;49.594;11.022;2023-08-01T10:39:35;21.10;99.90
9762;DHT22;4920;49.594;11.022;2023-08-01T10:42:05;21.00;99.90
9762;DHT22;4920;49.594;11.022;2023-08-01T10:44:45;21.00;99.90
9762;DHT22;4920;49.594;11.022;2023-08-01T10:47:14;21.10;99.90
9762;DHT22;4920;49.594;11.022;2023-08-01T10:49:43;21.20;99.90
9762;DHT22;4920;49.594;11.022;2023-08-01T10:52:20;21.30;99.90
9762;DHT22;4920;49.594;11.022;2023-08-01T10:54:56;21.50;99.90
9762;DHT22;4920;49.594;11.022;2023-08-01T10:57:27;21.80;99.90
9762;DHT22;4920;49.594;11.022;2023-08-01T10:59:56;22.10;99.90
9762;DHT22;4920;49.594;11.022;2023-08-01T11:02:27;22.40;99.90
9762;DHT22;4920;49.594;11.022;2023-08-01T11:04:57;22.70;99.90
9762;DHT22;4920;49.594;11.022;2023-08-01T11:07:28;22.80;99.90
9762;DHT22;4920;49.594;11.022;2023-08-01T11:10:04;22.90;99.90
9762;DHT22;4920;49.594;11.022;2023-08-01T11:12:35;23.10;99.90
9762;DHT22;4920;49.594;11.022;2023-08-01T11:15:06;23.40;99.90
9762;DHT22;4920;49.594;11.022;2023-08-01T11:17:36;23.60;99.90
9762;DHT22;4920;49.594;11.022;2023-08-01T11:20:06;23.80;99.90
9762;DHT22;4920;49.594;11.022;2023-08-01T11:22:37;24.00;99.90
9762;DHT22;4920;49.594;11.022;2023-08-01T11:25:07;24.20;99.90
9762;DHT22;4920;49.594;11.022;2023-08-01T11:27:36;24.40;99.90
9762;DHT22;4920;49.594;11.022;2023-08-01T11:30:05;24.50;99.90
9762;DHT22;4920;49.594;11.022;2023-08-01T11:32:35;24.50;99.90
9762;DHT22;4920;49.594;11.022;2023-08-01T11:35:05;24.20;99.90
9762;DHT22;4920;49.594;11.022;2023-08-01T11:37:36;24.10;99.90
9762;DHT22;4920;49.594;11.022;2023-08-01T11:40:07;23.60;99.90
9762;DHT22;4920;49.594;11.022;2023-08-01T11:42:37;23.10;99.90
9762;DHT22;4920;49.594;11.022;2023-08-01T11:45:10;21.70;99.90
9762;DHT22;4920;49.594;11.022;2023-08-01T11:47:45;19.80;99.90
9762;DHT22;4920;49.594;11.022;2023-08-01T11:50:14;18.10;99.90
9762;DHT22;4920;49.594;11.022;2023-08-01T11:52:46;17.30;99.90
9762;DHT22;4920;49.594;11.022;2023-08-01T11:55:22;16.90;99.90
9762;DHT22;4920;49.594;11.022;2023-08-01T11:57:54;16.70;99.90
9762;DHT22;4920;49.594;11.022;2023-08-01T12:00:25;16.90;99.90
9762;DHT22;4920;49.594;11.022;2023-08-01T12:03:04;17.20;99.90
9762;DHT22;4920;49.594;11.022;2023-08-01T12:05:34;17.40;99.90
9762;DHT22;4920;49.594;11.022;2023-08-01T12:08:11;17.50;99.90
9762;DHT22;4920;49.594;11.022;2023-08-01T12:10:42;17.80;99.90
9762;DHT22;4920;49.594;11.022;2023-08-01T12:13:21;18.10;99.90
9762;DHT22;4920;49.594;11.022;2023-08-01T12:15:50;18.50;99.90
9762;DHT22;4920;49.594;11.022;2023-08-01T12:18:21;18.90;99.90
9762;DHT22;4920;49.594;11.022;2023-08-01T12:21:09;19.20;99.90
9762;DHT22;4920;49.594;11.022;2023-08-01T12:23:40;19.30;99.90
9762;DHT22;4920;49.594;11.022;2023-08-01T12:26:09;19.40;99.90
9762;DHT22;4920;49.594;11.022;2023-08-01T12:28:38;19.30;99.90
9762;DHT22;4920;49.594;11.022;2023-08-01T12:31:07;19.20;99.90
9762;DHT22;4920;49.594;11.022;2023-08-01T12:33:35;19.20;99.90
9762;DHT22;4920;49.594;11.022;2023-08-01T12:36:04;19.30;99.90
9762;DHT22;4920;49.594;11.022;2023-08-01T12:38:33;19.30;99.90
9762;DHT22;4920;49.594;11.022;2023-08-01T12:41:03;19.20;99.90
9762;DHT22;4920;49.594;11.022;2023-08-01T12:43:33;19.30;99.90
9762;DHT22;4920;49.594;11.022;2023-08-01T12:46:01;19.50;99.90
9762;DHT22;4920;49.594;11.022;2023-08-01T12:48:30;19.60;99.90
9762;DHT22;4920;49.594;11.022;2023-08-01T12:50:59;19.80;99.90
9762;DHT22;4920;49.594;11.022;2023-08-01T12:53:28;19.90;99.90
9762;DHT22;4920;49.594;11.022;2023-08-01T12:56:04;20.00;99.90
9762;DHT22;4920;49.594;11.022;2023-08-01T12:58:32;20.30;99.90
9762;DHT22;4920;49.594;11.022;2023-08-01T13:01:02;20.60;99.90
9762;DHT22;4920;49.594;11.022;2023-08-01T13:03:32;20.90;99.90
9762;DHT22;4920;49.594;11.022;2023-08-01T13:06:01;21.20;99.90
9762;DHT22;4920;49.594;11.022;2023-08-01T13:08:30;21.40;99.90
9762;DHT22;4920;49.594;11.022;2023-08-01T13:10:58;21.40;99.90
9762;DHT22;4920;49.594;11.022;2023-08-01T13:13:29;21.40;99.90
9762;DHT22;4920;49.594;11.022;2023-08-01T13:15:58;21.20;99.90
9762;DHT22;4920;49.594;11.022;2023-08-01T13:18:26;21.20;99.90
9762;DHT22;4920;49.594;11.022;2023-08-01T13:20:56;21.50;99.90
9762;DHT22;4920;49.594;11.022;2023-08-01T13:23:26;21.70;99.90
9762;DHT22;4920;49.594;11.022;2023-08-01T13:25:57;21.90;99.90
9762;DHT22;4920;49.594;11.022;2023-08-01T13:28:30;22.20;99.90
9762;DHT22;4920;49.594;11.022;2023-08-01T13:30:59;22.30;99.90
9762;DHT22;4920;49.594;11.022;2023-08-01T13:33:28;22.40;99.90
9762;DHT22;4920;49.594;11.022;2023-08-01T13:35:57;22.40;99.90
9762;DHT22;4920;49.594;11.022;2023-08-01T13:38:26;22.30;99.90
9762;DHT22;4920;49.594;11.022;2023-08-01T13:40:59;22.30;99.90
9762;DHT22;4920;49.594;11.022;2023-08-01T13:43:30;22.50;99.90
9762;DHT22;4920;49.594;11.022;2023-08-01T13:45:59;22.70;99.90
9762;DHT22;4920;49.594;11.022;2023-08-01T13:48:31;22.80;99.90
9762;DHT22;4920;49.594;11.022;2023-08-01T13:51:00;23.00;99.90
9762;DHT22;4920;49.594;11.022;2023-08-01T13:53:29;23.10;99.90
9762;DHT22;4920;49.594;11.022;2023-08-01T13:55:57;23.40;99.90
9762;DHT22;4920;49.594;11.022;2023-08-01T13:58:26;23.80;99.90
9762;DHT22;4920;49.594;11.022;2023-08-01T14:01:02;24.10;99.90
9762;DHT22;4920;49.594;11.022;2023-08-01T14:03:31;24.30;99.90
9762;DHT22;4920;49.594;11.022;2023-08-01T14:06:04;24.50;99.90
9762;DHT22;4920;49.594;11.022;2023-08-01T14:08:34;24.40;99.90
9762;DHT22;4920;49.594;11.022;2023-08-01T14:11:04;24.50;99.90
9762;DHT22;4920;49.594;11.022;2023-08-01T14:13:34;24.50;99.90
9762;DHT22;4920;49.594;11.022;2023-08-01T14:16:04;24.50;99.90
9762;DHT22;4920;49.594;11.022;2023-08-01T14:18:33;24.20;99.90
9762;DHT22;4920;49.594;11.022;2023-08-01T14:21:02;24.10;99.90
9762;DHT22;4920;49.594;11.022;2023-08-01T14:23:31;24.10;99.90
9762;DHT22;4920;49.594;11.022;2023-08-01T14:26:00;24.20;99.90
9762;DHT22;4920;49.594;11.022;2023-08-01T14:28:29;24.10;99.90
9762;DHT22;4920;49.594;11.022;2023-08-01T14:31:00;24.00;99.90
9762;DHT22;4920;49.594;11.022;2023-08-01T14:33:31;23.90;99.90
9762;DHT22;4920;49.594;11.022;2023-08-01T14:36:01;23.70;99.90
9762;DHT22;4920;49.594;11.022;2023-08-01T14:38:29;23.50;99.90
9762;DHT22;4920;49.594;11.022;2023-08-01T14:40:58;23.40;99.90
9762;DHT22;4920;49.594;11.022;2023-08-01T14:43:40;23.30;99.90
9762;DHT22;4920;49.594;11.022;2023-08-01T14:46:08;23.20;99.90
9762;DHT22;4920;49.594;11.022;2023-08-01T14:48:39;23.10;99.90
9762;DHT22;4920;49.594;11.022;2023-08-01T14:51:08;23.00;99.90
9762;DHT22;4920;49.594;11.022;2023-08-01T14:53:37;22.90;99.90
9762;DHT22;4920;49.594;11.022;2023-08-01T14:56:06;22.80;99.90
9762;DHT22;4920;49.594;11.022;2023-08-01T14:58:35;22.70;99.90
9762;DHT22;4920;49.594;11.022;2023-08-01T15:01:12;22.70;99.90
9762;DHT22;4920;49.594;11.022;2023-08-01T15:03:43;22.70;99.90
9762;DHT22;4920;49.594;11.022;2023-08-01T15:06:12;22.80;99.90
9762;DHT22;4920;49.594;11.022;2023-08-01T15:08:42;22.90;99.90
9762;DHT22;4920;49.594;11.022;2023-08-01T15:11:14;22.90;99.90
9762;DHT22;4920;49.594;11.022;2023-08-01T15:13:45;23.10;99.90
9762;DHT22;4920;49.594;11.022;2023-08-01T15:16:14;23.10;99.90
9762;DHT22;4920;49.594;11.022;2023-08-01T15:18:45;23.00;99.90
9762;DHT22;4920;49.594;11.022;2023-08-01T15:21:13;23.00;99.90
9762;DHT22;4920;49.594;11.022;2023-08-01T15:23:42;23.00;99.90
9762;DHT22;4920;49.594;11.022;2023-08-01T15:26:11;23.00;99.90
9762;DHT22;4920;49.594;11.022;2023-08-01T15:28:40;22.90;99.90
9762;DHT22;4920;49.594;11.022;2023-08-01T15:31:09;23.00;99.90
9762;DHT22;4920;49.594;11.022;2023-08-01T15:33:39;23.20;99.90
9762;DHT22;4920;49.594;11.022;2023-08-01T15:36:10;23.30;99.90
9762;DHT22;4920;49.594;11.022;2023-08-01T15:38:39;23.40;99.90
9762;DHT22;4920;49.594;11.022;2023-08-01T15:41:08;23.40;99.90
9762;DHT22;4920;49.594;11.022;2023-08-01T15:43:39;23.60;99.90
9762;DHT22;4920;49.594;11.022;2023-08-01T15:49:31;24.30;99.90
9762;DHT22;4920;49.594;11.022;2023-08-01T15:52:02;24.40;97.50
9762;DHT22;4920;49.594;11.022;2023-08-01T15:54:30;24.30;95.40
9762;DHT22;4920;49.594;11.022;2023-08-01T15:56:59;24.20;94.70
9762;DHT22;4920;49.594;11.022;2023-08-01T15:59:28;24.10;95.20
9762;DHT22;4920;49.594;11.022;2023-08-01T16:01:57;23.90;94.90
9762;DHT22;4920;49.594;11.022;2023-08-01T16:04:26;23.70;95.70
9762;DHT22;4920;49.594;11.022;2023-08-01T16:06:55;23.60;95.60
9762;DHT22;4920;49.594;11.022;2023-08-01T16:09:26;23.60;96.10
9762;DHT22;4920;49.594;11.022;2023-08-01T16:11:55;23.60;96.70
9762;DHT22;4920;49.594;11.022;2023-08-01T16:14:23;23.60;96.50